Time;durP1;ratioP1;P1;durP2;ratioP2;P2;SDS_P1;SDS_P2;PMS_P1;PMS_P2;Temp;Humidity;BMP_temperature;BMP_pressure;BME280_temperature;BME280_humidity;BME280_pressure;Samples;Min_cycle;Max_cycle;Signal;HPM_P1;HPM_P2
2022/05/08 00:03:40;;;;;;;7.93;7.22;;;;;;;16.56;58.00;100732.94;10368426;28;20061;-61
2022/05/08 00:08:43;;;;;;;7.70;7.00;;;;;;;16.41;58.54;100743.34;10367987;28;20053;-63
2022/05/08 00:13:45;;;;;;;8.20;7.18;;;;;;;16.35;58.02;100743.97;10367520;28;20063;-62
2022/05/08 00:18:47;;;;;;;9.25;8.25;;;;;;;16.19;58.77;100725.78;10369546;28;20357;-61
2022/05/08 00:23:48;;;;;;;8.35;7.55;;;;;;;16.19;59.21;100727.63;10366016;28;20053;-63
2022/05/08 00:28:50;;;;;;;9.73;8.82;;;;;;;16.24;59.52;100742.31;10367615;28;20049;-61
2022/05/08 00:33:53;;;;;;;9.60;8.70;;;;;;;16.31;58.79;100747.09;10371376;28;20049;-63
2022/05/08 00:38:55;;;;;;;8.45;7.53;;;;;;;16.34;60.17;100736.06;10366642;28;20411;-63
2022/05/08 00:43:56;;;;;;;8.02;7.13;;;;;;;16.38;59.46;100748.19;10366019;28;20075;-63
2022/05/08 00:48:57;;;;;;;9.73;8.43;;;;;;;16.30;59.17;100735.47;10366000;28;20054;-63
2022/05/08 00:54:02;;;;;;;9.35;8.13;;;;;;;16.12;59.16;100726.53;10366409;28;20270;-61
2022/05/08 00:59:03;;;;;;;8.45;7.72;;;;;;;16.07;60.99;100732.34;10359750;28;20053;-60
2022/05/08 01:04:05;;;;;;;7.95;7.30;;;;;;;16.11;61.28;100735.56;10367172;28;20049;-61
2022/05/08 01:09:06;;;;;;;8.10;7.40;;;;;;;15.86;60.75;100711.94;10366330;28;20046;-61
2022/05/08 01:14:07;;;;;;;8.55;7.85;;;;;;;15.80;61.51;100733.16;10364185;28;20231;-61
2022/05/08 01:19:09;;;;;;;9.10;8.30;;;;;;;15.60;62.07;100702.78;10367999;28;20202;-62
2022/05/08 01:24:20;;;;;;;8.38;7.57;;;;;;;15.50;63.66;100733.19;10375005;28;20064;-62
2022/05/08 01:29:22;;;;;;;8.95;8.15;;;;;;;15.69;62.32;100726.94;10374036;28;20045;-62
2022/05/08 01:34:23;;;;;;;9.85;8.95;;;;;;;15.39;63.37;100719.94;10373124;28;20670;-62
2022/05/08 01:39:24;;;;;;;10.88;9.77;;;;;;;15.45;63.18;100724.72;10372006;28;20124;-63
2022/05/08 01:44:26;;;;;;;8.88;8.00;;;;;;;15.54;64.07;100733.75;10375992;28;20103;-60
2022/05/08 01:49:27;;;;;;;8.23;7.40;;;;;;;15.60;63.54;100726.94;10377414;28;20542;-59
2022/05/08 01:54:28;;;;;;;8.18;7.50;;;;;;;15.41;63.68;100699.16;10372861;28;20428;-61
2022/05/08 01:59:30;;;;;;;9.25;8.45;;;;;;;15.41;65.03;100725.16;10371816;28;20154;-61
2022/05/08 02:04:31;;;;;;;8.55;7.85;;;;;;;15.45;64.09;100727.41;10375249;28;20136;-60
2022/05/08 02:09:33;;;;;;;8.60;7.70;;;;;;;15.27;65.01;100731.81;10374332;28;20049;-61
2022/05/08 02:14:34;;;;;;;9.68;8.77;;;;;;;15.10;65.43;100714.59;10372688;28;20427;-61
2022/05/08 02:19:35;;;;;;;9.35;8.45;;;;;;;15.33;64.98;100733.94;10380577;28;20052;-61
2022/05/08 02:24:37;;;;;;;8.23;7.45;;;;;;;15.39;64.73;100733.34;10370729;28;20486;-61
2022/05/08 02:29:38;;;;;;;9.82;8.25;;;;;;;15.40;64.80;100726.97;10370195;28;20049;-61
2022/05/08 02:34:39;;;;;;;9.55;8.32;;;;;;;15.36;64.19;100729.13;10371254;28;20069;-59
2022/05/08 02:39:41;;;;;;;7.97;7.18;;;;;;;15.19;64.30;100724.47;10368292;28;20152;-61
2022/05/08 02:44:42;;;;;;;8.65;7.85;;;;;;;15.20;65.40;100732.34;10369027;28;20124;-61
2022/05/08 02:49:44;;;;;;;8.23;7.53;;;;;;;15.26;64.70;100730.13;10368382;28;20049;-61
2022/05/08 02:54:45;;;;;;;9.23;7.82;;;;;;;15.25;65.44;100734.63;10367653;28;20497;-61
2022/05/08 02:59:47;;;;;;;8.38;7.38;;;;;;;15.17;64.91;100743.38;10368694;28;20060;-61
2022/05/08 03:04:48;;;;;;;8.52;7.68;;;;;;;14.88;65.73;100731.78;10367531;28;20120;-62
2022/05/08 03:09:50;;;;;;;8.80;7.90;;;;;;;14.89;66.45;100728.13;10369840;28;20057;-61
2022/05/08 03:14:51;;;;;;;7.90;6.88;;;;;;;15.06;66.00;100758.75;10369064;28;20053;-63
2022/05/08 03:19:53;;;;;;;8.25;7.40;;;;;;;15.00;66.77;100763.69;10366668;28;20059;-63
2022/05/08 03:24:54;;;;;;;7.65;6.82;;;;;;;14.99;66.14;100771.88;10365565;28;20061;-63
2022/05/08 03:29:56;;;;;;;9.13;7.72;;;;;;;14.81;67.00;100752.97;10367994;28;20081;-63
2022/05/08 03:34:58;;;;;;;9.63;7.55;;;;;;;14.79;66.76;100766.50;10367611;28;20205;-63
2022/05/08 03:40:00;;;;;;;8.77;7.70;;;;;;;14.66;68.11;100768.59;10369318;28;20049;-64
2022/05/08 03:45:02;;;;;;;8.40;7.60;;;;;;;14.67;68.84;100775.66;10365146;28;20049;-63
2022/05/08 03:50:06;;;;;;;8.82;7.93;;;;;;;14.72;68.74;100775.22;10366811;28;20059;-61
2022/05/08 03:55:08;;;;;;;8.65;7.75;;;;;;;14.62;68.60;100748.41;10366922;28;20049;-63
2022/05/08 04:00:10;;;;;;;9.00;8.18;;;;;;;14.65;68.43;100775.78;10367336;28;20053;-61
2022/05/08 04:05:11;;;;;;;9.18;8.18;;;;;;;14.70;68.85;100775.38;10369391;28;20057;-62
2022/05/08 04:10:13;;;;;;;9.57;8.57;;;;;;;14.39;69.64;100770.03;10367518;28;20191;-62
2022/05/08 04:20:35;;;;;;;9.52;8.63;;;;;;;14.53;69.44;100792.06;10366520;28;20132;-61
2022/05/08 04:25:37;;;;;;;9.85;8.80;;;;;;;14.49;70.95;100781.63;10366572;28;20509;-61
2022/05/08 04:30:38;;;;;;;9.43;8.52;;;;;;;14.39;70.12;100774.53;10366769;28;20700;-63
2022/05/08 04:35:40;;;;;;;10.88;9.43;;;;;;;14.34;70.61;100785.66;10375562;28;20061;-62
2022/05/08 04:40:41;;;;;;;9.73;8.80;;;;;;;14.41;70.78;100797.53;10374173;28;20057;-63
2022/05/08 04:45:43;;;;;;;10.38;9.43;;;;;;;14.21;71.88;100803.78;10369361;28;20049;-62
2022/05/08 04:50:44;;;;;;;9.88;8.88;;;;;;;14.29;71.04;100807.50;10366494;28;20423;-62
2022/05/08 04:55:46;;;;;;;9.80;8.90;;;;;;;14.24;72.87;100803.50;10372505;28;20046;-62
2022/05/08 05:00:47;;;;;;;10.25;9.27;;;;;;;14.53;70.94;100824.19;10374833;28;20120;-62
2022/05/08 05:05:48;;;;;;;12.00;10.73;;;;;;;14.41;71.26;100802.03;10375184;28;20069;-61
2022/05/08 05:10:50;;;;;;;12.52;9.77;;;;;;;14.47;71.76;100825.59;10376792;28;20045;-62
2022/05/08 05:15:51;;;;;;;10.98;9.98;;;;;;;14.48;71.63;100824.59;10373608;28;20061;-62
2022/05/08 05:20:53;;;;;;;11.25;10.23;;;;;;;14.38;71.54;100821.91;10371044;28;20671;-63
2022/05/08 05:25:55;;;;;;;11.77;9.82;;;;;;;14.70;71.12;100846.84;10373230;28;20591;-63
2022/05/08 05:30:57;;;;;;;14.05;10.57;;;;;;;14.74;70.53;100843.78;10374611;28;20060;-63
2022/05/08 05:35:58;;;;;;;12.38;11.13;;;;;;;14.80;70.24;100842.38;10372085;28;20182;-63
2022/05/08 05:41:00;;;;;;;13.52;10.38;;;;;;;15.01;70.15;100861.03;10373765;28;20128;-61
2022/05/08 05:51:22;;;;;;;13.15;11.68;;;;;;;15.06;70.60;100863.31;10374288;28;20135;-61
2022/05/08 05:56:23;;;;;;;12.70;11.35;;;;;;;15.13;69.80;100864.47;10392498;28;20644;-62
2022/05/08 06:01:25;;;;;;;12.55;11.27;;;;;;;15.09;69.75;100871.94;10382061;28;20155;-63
2022/05/08 06:06:26;;;;;;;12.88;11.65;;;;;;;15.26;70.17;100872.25;10375331;28;20487;-62
2022/05/08 06:11:27;;;;;;;13.15;11.80;;;;;;;15.33;69.41;100865.34;10370630;28;20055;-62
2022/05/08 06:16:31;;;;;;;12.65;11.43;;;;;;;15.47;69.26;100861.41;10371125;28;20052;-62
2022/05/08 06:21:32;;;;;;;12.43;11.20;;;;;;;15.57;68.42;100883.72;10371039;28;20095;-62
2022/05/08 06:26:34;;;;;;;11.73;10.57;;;;;;;15.86;68.05;100883.72;10372152;28;20059;-63
2022/05/08 06:31:35;;;;;;;12.50;11.30;;;;;;;16.15;66.90;100890.91;10367762;28;20844;-62
2022/05/08 06:36:37;;;;;;;12.82;11.65;;;;;;;16.25;66.86;100897.09;10370936;28;20057;-62
2022/05/08 06:41:38;;;;;;;10.63;9.70;;;;;;;16.48;66.02;100898.59;10369741;28;20049;-63
2022/05/08 06:46:40;;;;;;;11.73;10.63;;;;;;;16.63;65.32;100898.97;10370511;28;20063;-63
2022/05/08 06:51:43;;;;;;;13.25;11.82;;;;;;;16.69;65.05;100901.06;10368060;28;20644;-62
2022/05/08 06:56:45;;;;;;;13.38;12.02;;;;;;;16.49;65.41;100890.41;10370222;28;20094;-63
2022/05/08 07:01:46;;;;;;;11.18;10.15;;;;;;;16.77;65.25;100893.97;10380653;28;20049;-63
2022/05/08 07:06:50;;;;;;;12.93;11.63;;;;;;;16.95;64.56;100915.56;10368795;28;20048;-61
2022/05/08 07:11:52;;;;;;;12.15;11.05;;;;;;;17.30;63.52;100908.56;10368225;28;20043;-61
2022/05/08 07:16:57;;;;;;;12.68;11.52;;;;;;;17.51;62.70;100915.50;10369491;28;20103;-62
2022/05/08 07:21:59;;;;;;;14.88;13.38;;;;;;;17.37;61.68;100894.50;10366232;28;20049;-63
2022/05/08 07:27:00;;;;;;;11.65;10.63;;;;;;;17.49;62.45;100904.06;10366096;28;20148;-61
2022/05/08 07:32:02;;;;;;;12.15;10.90;;;;;;;17.88;61.08;100902.88;10367313;28;20055;-61
2022/05/08 07:37:03;;;;;;;10.95;9.82;;;;;;;18.08;60.17;100892.81;10368161;28;20848;-62
2022/05/08 07:42:05;;;;;;;11.82;10.63;;;;;;;18.41;59.06;100903.81;10367923;28;20045;-62
2022/05/08 07:47:06;;;;;;;11.13;9.85;;;;;;;18.55;58.55;100901.38;10367524;28;20057;-61
2022/05/08 07:52:08;;;;;;;10.63;9.73;;;;;;;18.50;57.52;100895.63;10368162;28;20045;-61
2022/05/08 07:57:09;;;;;;;10.20;9.20;;;;;;;18.60;58.27;100903.59;10367758;28;20060;-61
2022/05/08 08:02:10;;;;;;;9.25;8.35;;;;;;;18.87;56.64;100907.09;10367342;28;20100;-61
2022/05/08 08:07:12;;;;;;;9.55;8.65;;;;;;;19.06;56.55;100920.34;10367296;28;20045;-61
2022/05/08 08:12:13;;;;;;;10.60;9.10;;;;;;;19.25;55.78;100913.84;10365809;28;20049;-60
2022/05/08 08:17:15;;;;;;;10.43;9.10;;;;;;;19.29;55.91;100914.38;10368396;28;20051;-61
2022/05/08 08:22:23;;;;;;;8.55;7.72;;;;;;;19.64;55.61;100933.16;10368598;28;20053;-63
2022/05/08 08:27:24;;;;;;;8.50;7.80;;;;;;;19.92;54.64;100918.38;10368300;28;20067;-61
2022/05/08 08:32:26;;;;;;;7.70;7.00;;;;;;;20.20;54.15;100933.38;10375392;28;20061;-61
2022/05/08 08:37:27;;;;;;;8.75;7.95;;;;;;;20.41;53.46;100922.88;10375321;28;20196;-67
2022/05/08 08:42:31;;;;;;;8.73;7.97;;;;;;;20.58;52.98;100930.94;10374194;28;20045;-62
2022/05/08 08:47:45;;;;;;;10.18;7.45;;;;;;;20.61;53.10;100917.06;10373091;28;20056;-60
2022/05/08 08:52:48;;;;;;;7.82;7.05;;;;;;;20.96;51.93;100934.75;10373810;28;20164;-62
2022/05/08 08:57:50;;;;;;;8.25;6.65;;;;;;;21.29;51.37;100925.66;10375189;28;20160;-62
2022/05/08 09:02:53;;;;;;;7.37;6.77;;;;;;;21.67;50.42;100931.19;10375255;28;20140;-62
2022/05/08 09:07:55;;;;;;;7.70;7.00;;;;;;;21.98;49.55;100927.56;10373721;28;20052;-62
2022/05/08 09:12:59;;;;;;;6.85;6.10;;;;;;;22.37;48.36;100934.72;10369668;28;20055;-62
2022/05/08 09:18:05;;;;;;;7.45;6.78;;;;;;;22.37;48.66;100932.84;10377302;28;20045;-61
2022/05/08 09:23:13;;;;;;;8.95;7.07;;;;;;;22.68;47.76;100925.56;10385739;28;20486;-61
2022/05/08 09:28:26;;;;;;;8.25;6.60;;;;;;;23.03;46.99;100931.25;10375047;28;20046;-60
2022/05/08 09:33:29;;;;;;;7.80;6.90;;;;;;;23.03;46.93;100931.25;10372798;28;20498;-62
2022/05/08 09:38:57;;;;;;;6.65;6.05;;;;;;;22.97;46.78;100922.00;10374881;28;20895;-62
2022/05/08 09:44:13;;;;;;;7.32;6.60;;;;;;;23.45;45.42;100914.25;10374171;28;20153;-60
2022/05/08 09:49:22;;;;;;;6.80;6.20;;;;;;;24.26;44.00;100925.88;10375160;28;20054;-61
2022/05/08 09:54:26;;;;;;;6.32;5.82;;;;;;;24.58;42.78;100921.75;10381925;28;20107;-61
2022/05/08 09:59:28;;;;;;;7.70;6.95;;;;;;;24.97;41.60;100920.28;10370946;28;20049;-61
2022/05/08 10:04:35;;;;;;;6.70;6.10;;;;;;;25.20;41.42;100921.81;10371055;28;20049;-61
2022/05/08 10:15:26;;;;;;;8.18;6.60;;;;;;;25.63;40.37;100915.28;10367809;28;20045;-62
2022/05/08 10:21:02;;;;;;;5.28;4.78;;;;;;;25.51;40.72;100912.31;10369653;28;20129;-62
2022/05/08 10:26:22;;;;;;;6.90;5.45;;;;;;;26.41;38.25;100909.22;10369035;28;20050;-61
2022/05/08 10:31:43;;;;;;;6.80;5.40;;;;;;;26.48;37.92;100911.94;10366908;28;20046;-62
2022/05/08 10:37:12;;;;;;;5.32;4.82;;;;;;;26.74;36.67;100900.16;10368686;28;20072;-63
2022/05/08 10:42:29;;;;;;;5.00;4.60;;;;;;;27.38;35.89;100901.13;10368910;28;20077;-62
2022/05/08 10:47:33;;;;;;;4.78;4.28;;;;;;;27.49;35.05;100903.19;10370424;28;20148;-62
2022/05/08 10:52:44;;;;;;;5.10;4.70;;;;;;;27.39;34.71;100886.41;10368432;28;20050;-61
2022/05/08 10:57:47;;;;;;;5.75;4.47;;;;;;;27.72;35.01;100901.75;10367998;28;20072;-62
2022/05/08 11:02:57;;;;;;;4.55;4.15;;;;;;;28.21;34.12;100889.16;10368848;28;20049;-62
2022/05/08 11:08:04;;;;;;;4.72;4.32;;;;;;;28.08;35.12;100888.47;10369397;28;20045;-63
2022/05/08 11:13:10;;;;;;;4.80;4.40;;;;;;;28.15;34.29;100895.53;10370192;28;20231;-63
2022/05/08 11:18:24;;;;;;;5.50;4.53;;;;;;;28.11;35.33;100885.28;10367643;28;20049;-63
2022/05/08 11:23:33;;;;;;;6.38;4.00;;;;;;;27.15;35.13;100885.25;10368108;28;20049;-63
2022/05/08 11:28:36;;;;;;;4.35;3.60;;;;;;;27.64;34.90;100882.91;10368789;28;20049;-61
2022/05/08 11:39:02;;;;;;;4.78;3.70;;;;;;;26.54;36.46;100861.94;10371201;28;20045;-61
2022/05/08 11:44:15;;;;;;;4.78;3.67;;;;;;;27.12;34.43;100870.13;10374569;28;20492;-62
2022/05/08 11:49:22;;;;;;;4.75;3.20;;;;;;;27.67;33.77;100866.03;10366500;28;20096;-62
2022/05/08 11:54:38;;;;;;;3.60;3.30;;;;;;;27.45;33.21;100857.38;10367961;28;20665;-62
2022/05/08 11:59:41;;;;;;;4.75;3.28;;;;;;;27.10;34.01;100855.03;10364952;28;20101;-62
2022/05/08 12:04:59;;;;;;;4.00;2.75;;;;;;;27.59;32.90;100858.09;10364934;28;20137;-62
2022/05/08 12:10:01;;;;;;;5.07;2.95;;;;;;;27.52;32.97;100853.53;10363354;28;20057;-62
2022/05/08 12:15:10;;;;;;;8.30;3.47;;;;;;;27.31;33.13;100845.66;10367495;28;20800;-65
2022/05/08 12:20:18;;;;;;;4.68;3.47;;;;;;;27.13;33.23;100847.22;10365285;28;20542;-61
2022/05/08 12:25:19;;;;;;;3.17;2.78;;;;;;;26.70;35.05;100839.66;10366510;28;20152;-61
2022/05/08 12:30:21;;;;;;;3.50;3.07;;;;;;;26.55;34.62;100833.59;10367679;28;20055;-62
2022/05/08 12:35:23;;;;;;;5.80;3.00;;;;;;;26.88;33.09;100843.59;10365715;28;20050;-63
2022/05/08 12:40:24;;;;;;;;;;;;;;;26.81;32.67;100847.19;10366280;28;20041;-63
2022/05/08 12:45:26;;;;;;;3.35;3.05;;;;;;;26.54;34.42;100842.84;10368631;28;19925;-61
2022/05/08 12:50:27;;;;;;;3.80;3.45;;;;;;;25.92;35.02;100829.50;10355266;28;20128;-61
2022/05/08 12:55:28;;;;;;;5.68;2.97;;;;;;;25.99;35.52;100821.34;10368641;28;20053;-62
2022/05/08 13:00:30;;;;;;;3.80;2.75;;;;;;;26.42;35.15;100832.59;10366357;28;20143;-62
2022/05/08 13:05:32;;;;;;;3.88;3.40;;;;;;;26.70;34.63;100823.28;10365646;28;20067;-62
2022/05/08 13:10:35;;;;;;;4.03;3.63;;;;;;;26.84;34.40;100845.06;10365536;28;20150;-62
2022/05/08 13:15:37;;;;;;;3.63;3.15;;;;;;;27.16;34.01;100833.13;10369074;28;20055;-62
2022/05/08 13:20:38;;;;;;;3.43;3.00;;;;;;;27.12;33.94;100837.34;10374514;28;20063;-63
2022/05/08 13:25:39;;;;;;;4.18;2.42;;;;;;;26.98;34.00;100835.75;10373265;28;20060;-62
2022/05/08 13:30:41;;;;;;;4.85;3.28;;;;;;;26.85;33.71;100839.38;10367059;28;20059;-62
2022/05/08 13:35:42;;;;;;;4.60;3.40;;;;;;;26.82;34.14;100842.56;10376982;28;20063;-61
2022/05/08 13:40:44;;;;;;;4.03;3.25;;;;;;;26.78;34.35;100825.78;10379273;28;20054;-62
2022/05/08 13:45:46;;;;;;;3.75;3.45;;;;;;;26.79;34.89;100835.63;10383658;28;20136;-62
2022/05/08 13:50:49;;;;;;;3.50;3.20;;;;;;;26.33;36.39;100850.22;10377756;28;20132;-62
2022/05/08 13:55:54;;;;;;;5.22;3.80;;;;;;;25.35;38.00;100848.13;10375379;28;20211;-62
2022/05/08 14:00:56;;;;;;;4.32;3.42;;;;;;;24.83;39.13;100855.91;10377559;28;20053;-63
2022/05/08 14:05:57;;;;;;;3.87;3.47;;;;;;;24.32;40.04;100833.44;10383569;28;20239;-63
2022/05/08 14:10:59;;;;;;;3.30;2.92;;;;;;;24.23;39.69;100834.66;10372959;28;20566;-61
2022/05/08 14:16:00;;;;;;;3.47;3.17;;;;;;;24.13;40.00;100845.88;10373103;28;20529;-62
2022/05/08 14:21:03;;;;;;;3.50;2.70;;;;;;;23.93;41.00;100845.72;10373053;28;20480;-62
2022/05/08 14:26:12;;;;;;;3.50;3.17;;;;;;;23.90;40.87;100840.69;10371083;28;20049;-63
2022/05/08 14:36:34;;;;;;;3.65;3.22;;;;;;;23.75;41.13;100831.72;10371261;28;20056;-62
2022/05/08 14:41:35;;;;;;;4.95;4.47;;;;;;;23.40;41.91;100818.88;10372660;28;20045;-63
2022/05/08 14:46:37;;;;;;;3.95;2.85;;;;;;;23.64;41.91;100825.81;10370665;28;20077;-63
2022/05/08 14:51:38;;;;;;;7.88;3.60;;;;;;;23.76;40.91;100815.22;10371402;28;20045;-61
2022/05/08 14:56:40;;;;;;;4.97;3.15;;;;;;;23.95;40.61;100821.91;10369375;28;20069;-61
2022/05/08 15:01:41;;;;;;;3.65;2.72;;;;;;;23.78;40.36;100831.34;10371450;28;20143;-61
2022/05/08 15:06:43;;;;;;;3.20;2.53;;;;;;;23.67;40.44;100821.00;10372019;28;20416;-61
2022/05/08 15:11:44;;;;;;;2.78;2.58;;;;;;;23.48;41.53;100836.97;10371772;28;20071;-61
2022/05/08 15:16:46;;;;;;;4.75;1.90;;;;;;;23.33;40.86;100830.72;10371209;28;21168;-62
2022/05/08 15:21:47;;;;;;;3.70;2.22;;;;;;;23.07;40.06;100815.81;10369581;28;20530;-62
2022/05/08 15:26:49;;;;;;;3.78;2.17;;;;;;;22.98;40.30;100825.94;10370372;28;20063;-61
2022/05/08 15:31:51;;;;;;;1.38;1.23;;;;;;;22.92;40.63;100830.28;10368581;28;20049;-60
2022/05/08 15:36:52;;;;;;;2.80;1.15;;;;;;;23.13;39.95;100823.22;10370872;28;20432;-61
2022/05/08 15:41:54;;;;;;;3.08;2.80;;;;;;;23.13;40.29;100817.78;10369529;28;20057;-63
2022/05/08 15:46:55;;;;;;;2.60;1.40;;;;;;;23.26;39.96;100806.22;10369425;28;20053;-62
2022/05/08 15:51:56;;;;;;;3.55;1.83;;;;;;;23.29;39.74;100805.84;10368892;28;20049;-61
2022/05/08 15:56:58;;;;;;;2.75;2.03;;;;;;;23.18;39.73;100820.78;10371753;28;20051;-60
2022/05/08 16:01:59;;;;;;;1.88;1.70;;;;;;;22.94;39.71;100787.50;10371920;28;20081;-63
2022/05/08 16:07:01;;;;;;;2.85;1.70;;;;;;;23.01;39.95;100820.13;10369963;28;20073;-64
2022/05/08 16:12:04;;;;;;;2.38;1.70;;;;;;;22.89;39.96;100803.50;10369177;28;20059;-60
2022/05/08 16:27:46;;;;;;;1.90;1.17;;;;;;;22.58;40.75;100817.34;10378409;28;20124;-61
2022/05/08 16:32:47;;;;;;;2.03;1.45;;;;;;;22.51;40.93;100814.53;10375033;28;20061;-61
2022/05/08 16:37:52;;;;;;;5.18;2.20;;;;;;;22.38;40.50;100803.50;10371534;28;20133;-61
2022/05/08 16:42:58;;;;;;;2.70;1.80;;;;;;;22.35;39.93;100801.16;10381777;28;20076;-62
2022/05/08 16:48:00;;;;;;;2.28;1.63;;;;;;;22.36;39.39;100802.84;10386562;28;20038;-61
2022/05/08 16:53:01;;;;;;;2.45;1.50;;;;;;;22.36;38.62;100810.97;10382381;28;20045;-64
2022/05/08 16:58:03;;;;;;;2.30;1.50;;;;;;;22.23;39.00;100806.16;10381661;28;20401;-62
2022/05/08 17:03:04;;;;;;;1.60;1.40;;;;;;;22.33;38.75;100820.31;10380026;28;20049;-62
2022/05/08 17:08:06;;;;;;;2.67;1.50;;;;;;;22.23;38.15;100798.03;10379427;28;20056;-61
2022/05/08 17:13:08;;;;;;;2.35;1.98;;;;;;;22.28;39.02;100814.59;10378189;28;20053;-62
2022/05/08 17:18:10;;;;;;;2.33;2.13;;;;;;;22.29;39.43;100818.16;10377993;28;20049;-61
2022/05/08 17:23:12;;;;;;;2.60;2.03;;;;;;;22.20;40.42;100817.38;10379576;28;20049;-61
2022/05/08 17:33:34;;;;;;;4.07;2.67;;;;;;;22.01;41.58;100802.53;10376182;28;20129;-62
2022/05/08 17:38:35;;;;;;;3.42;2.90;;;;;;;22.02;42.26;100817.75;10380797;28;20107;-62
2022/05/08 17:43:37;;;;;;;6.07;3.78;;;;;;;22.02;42.31;100804.19;10376204;28;20045;-61
2022/05/08 17:48:38;;;;;;;3.33;2.83;;;;;;;21.99;42.95;100815.41;10372455;28;20066;-62
2022/05/08 17:53:40;;;;;;;3.45;3.05;;;;;;;21.92;43.47;100815.31;10376494;28;20053;-65
2022/05/08 17:58:41;;;;;;;5.78;3.88;;;;;;;21.72;44.31;100812.28;10375840;28;20722;-61
2022/05/08 18:09:06;;;;;;;5.13;3.95;;;;;;;21.62;45.25;100827.94;10375973;28;20049;-62
2022/05/08 18:14:08;;;;;;;3.67;2.90;;;;;;;21.32;45.63;100819.69;10377054;28;20566;-61
2022/05/08 18:19:10;;;;;;;5.03;4.60;;;;;;;21.32;46.40;100836.78;10377313;28;20797;-62
2022/05/08 18:24:11;;;;;;;6.10;4.50;;;;;;;21.25;47.55;100845.81;10377571;28;20140;-66
2022/05/08 18:29:12;;;;;;;5.20;4.70;;;;;;;21.14;47.21;100850.59;10376041;28;20049;-62
2022/05/08 18:34:14;;;;;;;4.45;4.05;;;;;;;20.87;47.51;100821.31;10377743;28;20713;-60
2022/05/08 18:39:15;;;;;;;5.78;5.15;;;;;;;20.95;48.90;100854.59;10375128;28;20223;-63
2022/05/08 18:44:16;;;;;;;4.63;4.22;;;;;;;20.77;49.13;100862.13;10375528;28;20045;-62
2022/05/08 18:49:20;;;;;;;3.97;3.65;;;;;;;20.69;50.13;100872.97;10381259;28;20053;-61
2022/05/08 18:54:22;;;;;;;5.93;3.90;;;;;;;20.63;50.46;100869.09;10387503;28;20053;-63
2022/05/08 18:59:25;;;;;;;4.72;4.03;;;;;;;20.54;50.85;100880.94;10382954;28;20045;-62
2022/05/08 19:04:32;;;;;;;4.30;3.87;;;;;;;20.41;50.61;100893.13;10377896;28;20049;-63
2022/05/08 19:09:34;;;;;;;5.75;4.22;;;;;;;20.33;50.50;100895.88;10372813;28;20053;-63
2022/05/08 19:14:36;;;;;;;5.13;4.35;;;;;;;20.24;51.24;100896.91;10369993;28;20057;-62
2022/05/08 19:19:37;;;;;;;5.95;4.93;;;;;;;20.21;51.23;100902.66;10369343;28;20075;-63
2022/05/08 19:24:39;;;;;;;11.30;8.80;;;;;;;20.14;51.43;100916.81;10373738;28;20073;-62
2022/05/08 19:29:40;;;;;;;19.48;12.50;;;;;;;20.07;51.70;100917.66;10371070;28;20057;-62
2022/05/08 19:40:04;;;;;;;5.18;4.68;;;;;;;19.91;51.69;100934.75;10370612;28;20041;-62
2022/05/08 19:45:07;;;;;;;7.40;4.60;;;;;;;19.86;52.21;100942.50;10370853;28;20787;-63
2022/05/08 19:50:09;;;;;;;5.03;3.92;;;;;;;19.76;51.86;100946.16;10371020;28;20462;-61
2022/05/08 19:55:11;;;;;;;6.50;4.15;;;;;;;19.72;52.24;100961.00;10371803;28;20128;-63
2022/05/08 20:00:13;;;;;;;5.97;4.43;;;;;;;19.63;52.45;100951.22;10370467;28;20083;-63
2022/05/08 20:05:15;;;;;;;4.18;3.70;;;;;;;19.51;52.22;100966.03;10370305;28;20210;-63
2022/05/08 20:10:18;;;;;;;4.60;3.97;;;;;;;19.39;52.14;100963.63;10370860;28;20099;-63
2022/05/08 20:15:27;;;;;;;5.20;3.60;;;;;;;19.21;52.27;100954.81;10371122;28;20136;-62
2022/05/08 20:25:49;;;;;;;5.10;2.97;;;;;;;19.07;51.56;100985.97;10373266;28;20049;-62
2022/05/08 20:30:50;;;;;;;5.55;2.80;;;;;;;18.99;50.78;100986.75;10378703;28;20049;-62
2022/05/08 20:35:51;;;;;;;3.03;2.38;;;;;;;18.84;50.96;100978.41;10381263;28;20607;-62
2022/05/08 20:40:53;;;;;;;4.22;2.35;;;;;;;18.73;50.57;100987.59;10380959;28;20136;-61
2022/05/08 20:45:54;;;;;;;3.10;2.38;;;;;;;18.79;49.80;101004.13;10379974;28;20045;-63
2022/05/08 20:50:56;;;;;;;4.85;2.10;;;;;;;18.75;49.00;100998.22;10377824;28;20049;-62
2022/05/08 20:55:57;;;;;;;4.53;1.95;;;;;;;18.58;48.04;100991.03;10383312;28;20045;-62
2022/05/08 21:00:58;;;;;;;5.07;1.98;;;;;;;18.60;48.60;101013.28;10379366;28;20136;-62
2022/05/08 21:11:20;;;;;;;2.28;1.50;;;;;;;18.32;47.30;100978.38;10377735;28;20136;-61
2022/05/08 21:16:22;;;;;;;5.72;1.40;;;;;;;18.37;47.16;101011.94;10392516;28;20053;-62
2022/05/08 21:21:24;;;;;;;3.70;1.42;;;;;;;18.28;46.78;101003.94;10378078;28;20056;-62
2022/05/08 21:26:25;;;;;;;4.30;1.58;;;;;;;18.23;46.71;101017.88;10376213;28;20048;-63
2022/05/08 21:31:27;;;;;;;2.38;1.08;;;;;;;18.08;46.87;101022.97;10376028;28;20057;-61
2022/05/08 21:36:30;;;;;;;4.63;1.73;;;;;;;17.84;46.63;101010.91;10375713;28;20060;-62
2022/05/08 21:41:31;;;;;;;2.03;1.40;;;;;;;17.64;47.26;101002.13;10373125;28;20044;-62
2022/05/08 21:46:33;;;;;;;3.70;1.42;;;;;;;17.72;47.34;101022.06;10376852;28;20053;-62
2022/05/08 21:51:34;;;;;;;1.52;1.20;;;;;;;17.73;47.87;101026.44;10374074;28;20103;-61
2022/05/08 21:56:35;;;;;;;2.88;1.65;;;;;;;17.65;47.34;101025.38;10372150;28;20057;-61
2022/05/08 22:01:37;;;;;;;2.63;1.30;;;;;;;17.59;47.47;101011.66;10376343;28;20049;-62
2022/05/08 22:06:38;;;;;;;3.03;1.30;;;;;;;17.55;48.16;101037.16;10375916;28;20116;-62
2022/05/08 22:11:40;;;;;;;2.75;1.17;;;;;;;17.57;47.87;101030.66;10375559;28;20567;-61
2022/05/08 22:16:41;;;;;;;4.72;1.88;;;;;;;17.57;48.41;101041.41;10376888;28;20059;-62
2022/05/08 22:21:47;;;;;;;3.10;1.23;;;;;;;17.40;48.17;101024.22;10373891;28;20072;-61
2022/05/08 22:26:48;;;;;;;3.08;1.40;;;;;;;17.38;48.32;101038.81;10375775;28;20043;-63
2022/05/08 22:31:49;;;;;;;4.90;1.60;;;;;;;17.16;49.39;101032.84;10373907;28;20055;-63
2022/05/08 22:36:51;;;;;;;3.67;1.30;;;;;;;17.24;49.58;101053.63;10376866;28;20049;-62
2022/05/08 22:41:52;;;;;;;3.47;1.80;;;;;;;17.11;49.31;101024.34;10377285;28;20057;-61
2022/05/08 22:46:54;;;;;;;4.00;1.50;;;;;;;16.94;49.01;101024.13;10379343;28;20056;-61
2022/05/08 22:51:55;;;;;;;2.50;1.05;;;;;;;16.94;49.63;101032.19;10383891;28;20049;-63
2022/05/08 22:56:57;;;;;;;4.20;1.40;;;;;;;16.93;49.48;101027.81;10377975;28;20154;-61
2022/05/08 23:01:59;;;;;;;3.17;1.40;;;;;;;16.95;49.70;101031.19;10373603;28;20060;-62
2022/05/08 23:07:00;;;;;;;4.18;1.63;;;;;;;16.86;50.04;101026.66;10373936;28;20041;-62
2022/05/08 23:12:02;;;;;;;4.53;1.67;;;;;;;16.69;49.84;101016.66;10373942;28;20051;-61
2022/05/08 23:17:03;;;;;;;3.08;1.40;;;;;;;16.58;50.56;101037.31;10374781;28;20592;-61
2022/05/08 23:22:05;;;;;;;3.78;1.48;;;;;;;16.50;50.60;101029.16;10374439;28;20060;-62
2022/05/08 23:27:06;;;;;;;3.58;1.27;;;;;;;16.56;50.69;101039.31;10373084;28;20400;-61
2022/05/08 23:32:08;;;;;;;2.67;1.35;;;;;;;16.55;50.38;101037.63;10374942;28;20444;-61
2022/05/08 23:37:09;;;;;;;3.13;2.22;;;;;;;16.44;51.16;101038.63;10379609;28;20097;-63
2022/05/08 23:42:11;;;;;;;4.13;1.50;;;;;;;16.47;51.34;101045.56;10375944;28;20054;-63
2022/05/08 23:47:12;;;;;;;2.97;1.60;;;;;;;16.35;52.28;101038.59;10370148;28;20052;-63
2022/05/08 23:52:14;;;;;;;3.03;1.73;;;;;;;16.31;52.15;101042.59;10369561;28;20049;-62
2022/05/08 23:57:15;;;;;;;3.95;1.52;;;;;;;16.21;52.00;101030.00;10386192;28;20041;-63
